createdAt,value
2019-02-22T00:01:22.056Z,11.00
2019-02-22T00:04:06.772Z,11.00
2019-02-22T00:06:48.628Z,10.90
2019-02-22T00:09:29.656Z,10.80
2019-02-22T00:12:11.204Z,10.90
2019-02-22T00:14:52.357Z,11.00
2019-02-22T00:17:33.575Z,10.90
2019-02-22T00:20:14.952Z,10.70
2019-02-22T00:22:56.649Z,10.50
2019-02-22T00:25:37.567Z,10.40
2019-02-22T00:28:18.820Z,10.40
2019-02-22T00:31:00.121Z,10.40
2019-02-22T00:33:44.863Z,10.30
2019-02-22T00:39:09.635Z,10.50
2019-02-22T00:41:51.569Z,10.60
2019-02-22T00:44:33.362Z,10.60
2019-02-22T00:47:14.448Z,10.50
2019-02-22T00:49:55.751Z,10.60
2019-02-22T00:52:37.407Z,10.60
2019-02-22T00:55:18.615Z,10.60
2019-02-22T00:58:00.207Z,10.60
2019-02-22T01:00:41.455Z,10.60
2019-02-22T01:03:22.636Z,10.70
2019-02-22T01:06:05.683Z,10.70
2019-02-22T01:08:47.096Z,10.70
2019-02-22T01:11:28.436Z,10.60
2019-02-22T01:14:10.231Z,10.60
2019-02-22T01:16:51.602Z,10.70
2019-02-22T01:19:32.872Z,10.70
2019-02-22T01:22:13.945Z,10.70
2019-02-22T01:24:54.997Z,10.80
2019-02-22T01:27:36.022Z,10.80
2019-02-22T01:30:17.344Z,10.80
2019-02-22T01:32:58.444Z,10.80
2019-02-22T01:35:40.301Z,10.80
2019-02-22T01:38:21.593Z,10.80
2019-02-22T01:41:02.902Z,10.80
2019-02-22T01:43:44.786Z,10.90
2019-02-22T01:46:25.954Z,10.90
2019-02-22T01:49:07.071Z,11.00
2019-02-22T01:51:48.573Z,11.00
2019-02-22T01:54:29.656Z,11.00
2019-02-22T01:57:11.392Z,11.00
2019-02-22T01:59:52.764Z,10.90
2019-02-22T02:02:34.110Z,10.90
2019-02-22T02:05:15.663Z,10.80
2019-02-22T02:07:57.153Z,10.80
2019-02-22T02:10:38.626Z,10.90
2019-02-22T02:13:19.787Z,10.90
2019-02-22T02:16:01.191Z,10.90
2019-02-22T02:18:42.579Z,10.90
2019-02-22T02:21:23.750Z,11.00
2019-02-22T02:24:05.134Z,11.00
2019-02-22T02:26:46.579Z,11.00
2019-02-22T02:29:28.016Z,11.10
2019-02-22T02:32:09.458Z,10.90
2019-02-22T02:34:51.426Z,10.90
2019-02-22T02:37:33.167Z,10.90
2019-02-22T02:40:14.610Z,10.80
2019-02-22T02:42:55.985Z,10.80
2019-02-22T02:45:37.016Z,10.70
2019-02-22T02:48:18.373Z,10.70
2019-02-22T02:50:59.838Z,10.70
2019-02-22T02:53:40.993Z,10.60
2019-02-22T02:56:22.378Z,10.50
2019-02-22T02:59:03.916Z,10.40
2019-02-22T03:01:45.197Z,10.40
2019-02-22T03:07:52.100Z,10.50
2019-02-22T03:10:33.364Z,10.40
2019-02-22T03:13:14.423Z,10.30
2019-02-22T03:15:55.541Z,10.40
2019-02-22T03:18:36.967Z,10.30
2019-02-22T03:21:18.298Z,10.30
2019-02-22T03:23:59.608Z,10.40
2019-02-22T03:26:40.839Z,10.40
2019-02-22T03:29:22.409Z,10.30
2019-02-22T03:32:03.741Z,10.30
2019-02-22T03:34:45.640Z,10.40
2019-02-22T03:37:26.616Z,10.40
2019-02-22T03:40:07.738Z,10.40
2019-02-22T03:42:49.306Z,10.50
2019-02-22T03:45:30.895Z,10.50
2019-02-22T03:48:12.019Z,10.60
2019-02-22T03:50:53.333Z,10.60
2019-02-22T03:53:36.160Z,10.50
2019-02-22T03:56:21.038Z,10.40
2019-02-22T03:59:02.730Z,10.40
2019-02-22T04:01:43.844Z,10.40
2019-02-22T04:04:25.463Z,10.40
2019-02-22T04:07:06.970Z,10.40
2019-02-22T04:09:48.317Z,10.40
2019-02-22T04:12:29.478Z,10.40
2019-02-22T04:15:10.879Z,10.40
2019-02-22T04:17:52.676Z,10.40
2019-02-22T04:20:33.949Z,10.30
2019-02-22T04:26:40.470Z,10.20
2019-02-22T04:29:21.668Z,10.20
2019-02-22T04:32:03.088Z,10.20
2019-02-22T04:34:44.551Z,10.30
2019-02-22T04:37:26.504Z,10.40
2019-02-22T04:40:08.450Z,10.40
2019-02-22T04:42:49.575Z,10.50
2019-02-22T04:45:30.978Z,10.50
2019-02-22T04:48:12.140Z,10.60
2019-02-22T04:50:53.905Z,10.60
2019-02-22T04:53:35.417Z,10.70
2019-02-22T04:56:16.647Z,10.70
2019-02-22T04:58:57.723Z,10.70
2019-02-22T05:01:39.812Z,10.70
2019-02-22T05:04:20.863Z,10.70
2019-02-22T05:07:01.924Z,10.70
2019-02-22T05:09:42.962Z,10.70
2019-02-22T05:12:24.239Z,10.70
2019-02-22T05:15:12.473Z,10.80
2019-02-22T05:17:48.404Z,10.90
2019-02-22T05:20:29.533Z,10.90
2019-02-22T05:23:11.004Z,10.90
2019-02-22T05:29:31.469Z,10.90
2019-02-22T05:32:12.607Z,10.80
2019-02-22T05:34:54.014Z,10.80
2019-02-22T05:37:35.074Z,10.70
2019-02-22T05:40:16.164Z,10.50
2019-02-22T05:42:57.548Z,10.40
2019-02-22T05:45:39.116Z,10.40
2019-02-22T05:48:20.227Z,10.40
2019-02-22T05:51:01.592Z,10.40
2019-02-22T05:53:42.944Z,10.50
2019-02-22T05:56:24.091Z,10.60
2019-02-22T05:59:05.172Z,10.60
2019-02-22T06:01:46.620Z,10.70
2019-02-22T06:04:27.919Z,10.80
2019-02-22T06:07:09.337Z,10.90
2019-02-22T06:09:50.463Z,11.00
2019-02-22T06:12:34.844Z,11.10
2019-02-22T06:15:15.344Z,11.10
2019-02-22T06:17:56.498Z,11.20
2019-02-22T06:20:42.967Z,11.20
2019-02-22T06:23:24.524Z,11.20
2019-02-22T06:26:05.999Z,11.20
2019-02-22T06:28:47.529Z,11.30
2019-02-22T06:31:29.454Z,11.30
2019-02-22T06:34:10.900Z,11.30
2019-02-22T06:37:01.318Z,11.40
2019-02-22T06:39:35.525Z,11.40
2019-02-22T06:42:17.268Z,11.40
2019-02-22T06:44:58.562Z,11.30
2019-02-22T06:47:43.371Z,11.30
2019-02-22T06:50:33.310Z,11.30
2019-02-22T06:53:07.966Z,11.20
2019-02-22T06:55:49.222Z,11.20
2019-02-22T06:58:31.319Z,11.20
2019-02-22T07:01:12.321Z,11.20
2019-02-22T07:03:53.615Z,11.20
2019-02-22T07:06:34.728Z,11.20
2019-02-22T07:09:15.728Z,11.20
2019-02-22T07:11:58.784Z,11.30
2019-02-22T07:14:40.498Z,11.30
2019-02-22T07:17:21.678Z,11.30
2019-02-22T07:20:03.048Z,11.40
2019-02-22T07:22:44.203Z,11.40
2019-02-22T07:29:07.510Z,11.50
2019-02-22T07:31:49.426Z,11.60
2019-02-22T07:38:10.540Z,11.50
2019-02-22T07:40:52.143Z,11.60
2019-02-22T11:44:11.343Z,20.40
2019-02-22T11:46:58.834Z,20.20
2019-02-22T11:49:45.778Z,19.50
2019-02-22T11:52:33.113Z,19.10
2019-02-22T11:55:20.502Z,18.50
2019-02-22T11:58:07.469Z,18.30
2019-02-22T12:00:54.702Z,18.80
2019-02-22T12:03:42.032Z,18.40
2019-02-22T12:06:29.754Z,17.60
2019-02-22T12:09:16.989Z,17.30
2019-02-22T12:12:04.323Z,17.90
2019-02-22T12:14:52.416Z,18.50
2019-02-22T12:17:39.689Z,19.40
2019-02-22T12:20:27.230Z,18.80
2019-02-22T12:23:14.352Z,18.30
2019-02-22T12:26:01.829Z,17.50
2019-02-22T12:28:48.580Z,16.90
2019-02-22T12:32:21.134Z,16.30
2019-02-22T12:35:09.230Z,16.10
2019-02-22T12:37:56.697Z,16.00
2019-02-22T12:40:50.121Z,15.70
2019-02-22T12:43:37.364Z,15.60
2019-02-22T12:46:24.928Z,15.60
2019-02-22T12:49:12.716Z,15.70
2019-02-22T12:51:59.934Z,15.80
2019-02-22T12:54:47.533Z,15.90
2019-02-22T12:57:34.758Z,15.70
2019-02-22T13:00:22.208Z,15.60
2019-02-22T13:03:09.430Z,15.60
2019-02-22T13:05:56.440Z,15.60
2019-02-22T13:08:43.742Z,15.30
2019-02-22T13:11:31.075Z,15.10
2019-02-22T13:14:18.587Z,15.00
2019-02-22T13:17:06.250Z,14.90
2019-02-22T13:19:53.784Z,14.80
2019-02-22T13:22:41.252Z,14.80
2019-02-22T13:25:28.522Z,14.80
2019-02-22T13:28:16.220Z,14.90
2019-02-22T13:31:03.164Z,14.80
2019-02-22T13:33:50.705Z,14.70
2019-02-22T13:36:38.161Z,14.60
2019-02-22T13:39:25.299Z,14.60
2019-02-22T13:42:12.799Z,14.70
2019-02-22T13:44:59.922Z,14.80
2019-02-22T13:47:47.675Z,14.80
2019-02-22T13:50:35.177Z,14.80
2019-02-22T13:53:22.389Z,14.70
2019-02-22T13:56:09.916Z,14.70
2019-02-22T13:58:57.168Z,14.70
2019-02-22T14:01:44.138Z,14.70
2019-02-22T14:04:31.401Z,14.60
2019-02-22T14:07:18.466Z,14.60
2019-02-22T14:10:05.926Z,14.70
2019-02-22T14:12:52.710Z,14.60
2019-02-22T14:15:39.929Z,14.50
2019-02-22T14:18:27.144Z,14.60
2019-02-22T14:21:13.773Z,14.60
2019-02-22T14:24:01.156Z,14.50
2019-02-22T14:26:48.183Z,14.50
2019-02-22T14:29:35.114Z,14.40
2019-02-22T14:32:22.262Z,14.40
2019-02-22T14:35:09.194Z,14.40
2019-02-22T14:37:56.417Z,14.40
2019-02-22T14:40:43.466Z,14.20
2019-02-22T14:43:30.508Z,14.10
2019-02-22T14:46:25.640Z,14.10
2019-02-22T14:49:06.315Z,14.00
2019-02-22T14:51:53.610Z,13.80
2019-02-22T14:54:40.397Z,13.80
2019-02-22T14:57:27.445Z,13.70
2019-02-22T15:00:17.882Z,13.60
2019-02-22T15:03:04.919Z,13.50
2019-02-22T15:05:52.111Z,13.30
2019-02-22T15:08:39.650Z,13.20
2019-02-22T15:11:27.003Z,13.20
2019-02-22T15:14:13.818Z,13.10
2019-02-22T15:17:14.479Z,13.10
2019-02-22T15:20:01.658Z,13.10
2019-02-22T15:22:48.781Z,13.00
2019-02-22T15:25:35.712Z,12.90
2019-02-22T15:28:22.719Z,12.90
2019-02-22T15:31:10.063Z,12.90
2019-02-22T15:33:57.407Z,13.00
2019-02-22T15:36:44.757Z,13.10
2019-02-22T15:39:32.219Z,13.00
2019-02-22T15:42:19.239Z,12.90
2019-02-22T15:45:09.428Z,12.90
2019-02-22T15:47:56.661Z,12.90
2019-02-22T15:50:43.767Z,12.90
2019-02-22T15:53:30.944Z,12.90
2019-02-22T15:56:18.503Z,12.90
2019-02-22T15:59:05.727Z,12.90
2019-02-22T16:01:55.844Z,12.90
2019-02-22T16:04:45.121Z,12.90
2019-02-22T16:07:31.911Z,12.90
2019-02-22T16:10:18.695Z,13.00
2019-02-22T16:13:06.124Z,13.10
2019-02-22T16:15:53.205Z,13.10
2019-02-22T16:18:40.225Z,13.00
2019-02-22T16:21:27.430Z,13.00
2019-02-22T16:24:14.761Z,13.00
2019-02-22T16:27:01.904Z,13.00
2019-02-22T16:29:48.879Z,12.90
2019-02-22T16:32:36.147Z,13.00
2019-02-22T16:35:23.023Z,13.00
2019-02-22T16:38:10.042Z,12.90
2019-02-22T16:40:57.332Z,12.80
2019-02-22T16:43:44.372Z,12.90
2019-02-22T16:46:34.951Z,12.90
2019-02-22T16:49:20.269Z,12.90
2019-02-22T16:52:07.527Z,12.90
2019-02-22T16:54:54.686Z,12.90
2019-02-22T16:57:41.670Z,12.90
2019-02-22T17:00:28.935Z,12.90
2019-02-22T17:03:15.910Z,12.90
2019-02-22T17:06:02.863Z,12.90
2019-02-22T17:08:50.251Z,12.80
2019-02-22T17:11:37.461Z,12.80
2019-02-22T17:14:24.691Z,12.80
2019-02-22T17:17:11.933Z,12.80
2019-02-22T17:19:58.858Z,12.80
2019-02-22T17:22:45.784Z,12.80
2019-02-22T17:25:32.804Z,12.80
2019-02-22T17:28:20.211Z,12.80
2019-02-22T17:31:07.539Z,12.80
2019-02-22T17:33:54.466Z,12.80
2019-02-22T17:36:41.865Z,12.80
2019-02-22T17:39:28.864Z,12.80
2019-02-22T17:42:16.116Z,12.80
2019-02-22T17:45:03.443Z,12.80
2019-02-22T17:47:50.714Z,12.70
2019-02-22T17:50:38.098Z,12.70
2019-02-22T17:53:25.332Z,12.70
2019-02-22T17:56:12.793Z,12.60
2019-02-22T17:58:59.700Z,12.60
2019-02-22T18:01:46.696Z,12.60
2019-02-22T18:04:34.138Z,12.50
2019-02-22T18:07:21.151Z,12.50
2019-02-22T18:10:09.898Z,12.50
2019-02-22T18:12:56.940Z,12.40
2019-02-22T18:15:44.047Z,12.40
2019-02-22T18:18:31.019Z,12.40
2019-02-22T18:21:17.772Z,12.40
2019-02-22T18:24:05.169Z,12.40
2019-02-22T18:26:52.521Z,12.40
2019-02-22T18:29:39.734Z,12.30
2019-02-22T18:32:26.785Z,12.40
2019-02-22T18:35:13.715Z,12.30
2019-02-22T18:38:00.416Z,12.40
2019-02-22T18:40:48.146Z,12.40
2019-02-22T18:43:34.940Z,12.40
2019-02-22T18:46:22.178Z,12.40
2019-02-22T18:49:09.227Z,12.30
2019-02-22T18:51:56.300Z,12.30
2019-02-22T18:54:43.333Z,12.20
2019-02-22T18:57:30.421Z,12.10
2019-02-22T19:00:20.204Z,12.10
2019-02-22T19:03:07.560Z,12.00
2019-02-22T19:05:54.867Z,11.80
2019-02-22T19:08:42.221Z,11.70
2019-02-22T19:11:11.924Z,11.60
2019-02-22T19:13:41.286Z,11.60
2019-02-22T19:16:10.678Z,11.60
2019-02-22T19:18:40.200Z,11.60
2019-02-22T19:21:09.473Z,11.50
2019-02-22T19:23:38.819Z,11.40
2019-02-22T19:26:08.165Z,11.40
2019-02-22T19:28:37.552Z,11.40
2019-02-22T19:31:06.848Z,11.30
2019-02-22T19:33:36.114Z,11.20
2019-02-22T19:36:05.379Z,11.20
2019-02-22T19:38:34.660Z,11.20
2019-02-22T19:41:04.111Z,11.20
2019-02-22T19:43:33.428Z,11.20
2019-02-22T19:46:02.821Z,11.20
2019-02-22T19:48:32.248Z,11.10
2019-02-22T19:51:01.758Z,10.90
2019-02-22T19:53:30.989Z,11.00
2019-02-22T19:56:00.358Z,10.90
2019-02-22T19:58:29.690Z,11.00
2019-02-22T20:00:58.957Z,10.90
2019-02-22T20:03:28.296Z,10.80
2019-02-22T20:05:57.609Z,10.80
2019-02-22T20:08:26.904Z,10.70
2019-02-22T20:10:56.245Z,10.70
2019-02-22T20:13:25.566Z,10.70
2019-02-22T20:15:55.009Z,10.70
2019-02-22T20:18:24.348Z,10.70
2019-02-22T20:20:53.620Z,10.70
2019-02-22T20:23:22.974Z,10.70
2019-02-22T20:26:11.662Z,10.80
2019-02-22T20:28:41.032Z,10.90
2019-02-22T20:31:19.868Z,10.90
2019-02-22T20:33:41.521Z,10.90
2019-02-22T20:36:10.811Z,10.80
2019-02-22T20:38:40.294Z,10.80
2019-02-22T20:41:09.655Z,10.90
2019-02-22T20:43:39.068Z,10.90
2019-02-22T20:46:08.566Z,10.90
2019-02-22T20:48:38.023Z,11.00
2019-02-22T20:51:07.458Z,10.90
2019-02-22T20:53:36.859Z,10.90
2019-02-22T20:56:06.199Z,10.90
2019-02-22T20:58:35.653Z,10.90
2019-02-22T21:01:14.432Z,11.00
2019-02-22T21:03:36.148Z,11.00
2019-02-22T21:06:05.661Z,11.00
2019-02-22T21:08:34.992Z,10.90
2019-02-22T21:11:04.376Z,10.80
2019-02-22T21:13:33.678Z,10.80
2019-02-22T21:16:04.622Z,10.70
2019-02-22T21:18:34.163Z,10.70
2019-02-22T21:21:03.603Z,10.60
2019-02-22T21:23:32.949Z,10.70
2019-02-22T21:26:04.298Z,10.70
2019-02-22T21:28:33.414Z,10.50
2019-02-22T21:31:02.684Z,10.40
2019-02-22T21:33:32.013Z,10.40
2019-02-22T21:36:01.300Z,10.30
2019-02-22T21:38:30.594Z,10.30
2019-02-22T21:40:59.941Z,10.20
2019-02-22T21:43:29.264Z,10.20
2019-02-22T21:45:58.569Z,10.20
2019-02-22T21:48:32.556Z,10.20
2019-02-22T21:51:06.832Z,10.30
2019-02-22T21:53:41.752Z,10.30
2019-02-22T21:56:11.029Z,10.30
2019-02-22T21:58:40.330Z,10.20
2019-02-22T22:01:09.682Z,10.20
2019-02-22T22:03:38.919Z,10.10
2019-02-22T22:06:08.248Z,10.10
2019-02-22T22:08:37.599Z,10.20
2019-02-22T22:11:06.902Z,10.20
2019-02-22T22:13:36.171Z,10.10
2019-02-22T22:16:05.423Z,10.00
2019-02-22T22:18:38.812Z,9.80
2019-02-22T22:21:05.710Z,9.60
2019-02-22T22:23:35.052Z,9.50
2019-02-22T22:26:04.320Z,9.60
2019-02-22T22:28:33.585Z,9.60
2019-02-22T22:31:02.875Z,9.60
2019-02-22T22:33:32.116Z,9.60
2019-02-22T22:36:01.478Z,9.30
2019-02-22T22:38:50.079Z,9.30
2019-02-22T22:41:19.350Z,9.30
2019-02-22T22:43:48.607Z,9.40
2019-02-22T22:46:18.000Z,9.40
2019-02-22T22:48:50.340Z,9.30
2019-02-22T22:51:18.264Z,9.20
2019-02-22T22:53:47.532Z,9.10
2019-02-22T22:56:18.200Z,9.10
2019-02-22T22:58:48.010Z,9.10
2019-02-22T23:01:37.232Z,9.00
2019-02-22T23:04:06.622Z,9.00
2019-02-22T23:06:35.881Z,9.00
2019-02-22T23:09:08.056Z,8.90
2019-02-22T23:11:38.070Z,8.80
2019-02-22T23:14:07.302Z,8.90
2019-02-22T23:16:36.635Z,8.80
2019-02-22T23:19:26.700Z,8.60
2019-02-22T23:21:56.000Z,8.30
2019-02-22T23:24:25.331Z,8.40
2019-02-22T23:26:54.656Z,8.50
2019-02-22T23:29:23.942Z,8.70
2019-02-22T23:31:53.197Z,8.80
2019-02-22T23:34:41.797Z,8.80
2019-02-22T23:37:11.049Z,8.90
2019-02-22T23:39:40.298Z,8.90
2019-02-22T23:42:09.596Z,8.90
2019-02-22T23:44:58.222Z,8.80
2019-02-22T23:47:27.523Z,8.70
2019-02-22T23:49:56.786Z,8.70
2019-02-22T23:52:26.032Z,8.70
2019-02-22T23:54:55.278Z,8.80
2019-02-22T23:57:24.628Z,8.90
2019-02-22T23:59:53.862Z,8.90
